sensor_id;sensor_type;location;lat;lon;timestamp;temperature;humidity
44121;DHT22;29783;52.504;13.478;2023-03-23T00:01:53;11.60;74.30
44121;DHT22;29783;52.504;13.478;2023-03-23T00:17:29;11.20;75.50
44121;DHT22;29783;52.504;13.478;2023-03-23T00:20:34;11.20;75.90
44121;DHT22;29783;52.504;13.478;2023-03-23T00:26:21;11.10;75.90
44121;DHT22;29783;52.504;13.478;2023-03-23T00:35:01;11.10;76.10
44121;DHT22;29783;52.504;13.478;2023-03-23T00:50:47;11.00;76.10
44121;DHT22;29783;52.504;13.478;2023-03-23T01:02:49;10.80;76.60
44121;DHT22;29783;52.504;13.478;2023-03-23T01:05:17;10.70;76.60
44121;DHT22;29783;52.504;13.478;2023-03-23T01:27:29;10.70;77.20
44121;DHT22;29783;52.504;13.478;2023-03-23T01:29:55;10.50;77.40
44121;DHT22;29783;52.504;13.478;2023-03-23T01:32:24;10.40;77.70
44121;DHT22;29783;52.504;13.478;2023-03-23T01:34:50;10.30;78.10
44121;DHT22;29783;52.504;13.478;2023-03-23T01:37:16;10.20;78.70
44121;DHT22;29783;52.504;13.478;2023-03-23T01:43:12;10.30;78.50
44121;DHT22;29783;52.504;13.478;2023-03-23T01:45:39;10.30;78.20
44121;DHT22;29783;52.504;13.478;2023-03-23T01:48:39;10.30;78.10
44121;DHT22;29783;52.504;13.478;2023-03-23T01:51:13;10.40;77.90
44121;DHT22;29783;52.504;13.478;2023-03-23T01:54:17;10.50;78.00
44121;DHT22;29783;52.504;13.478;2023-03-23T01:57:03;10.50;77.90
44121;DHT22;29783;52.504;13.478;2023-03-23T01:59:32;10.50;77.90
44121;DHT22;29783;52.504;13.478;2023-03-23T02:01:59;10.50;77.80
44121;DHT22;29783;52.504;13.478;2023-03-23T02:04:27;10.60;77.70
44121;DHT22;29783;52.504;13.478;2023-03-23T02:06:55;10.60;77.60
44121;DHT22;29783;52.504;13.478;2023-03-23T02:09:25;10.70;77.20
44121;DHT22;29783;52.504;13.478;2023-03-23T02:11:52;10.80;76.60
44121;DHT22;29783;52.504;13.478;2023-03-23T02:14:20;10.80;76.20
44121;DHT22;29783;52.504;13.478;2023-03-23T02:20:48;10.90;76.20
44121;DHT22;29783;52.504;13.478;2023-03-23T02:33:05;11.00;75.50
44121;DHT22;29783;52.504;13.478;2023-03-23T02:35:39;11.10;75.50
44121;DHT22;29783;52.504;13.478;2023-03-23T02:41:00;11.20;74.50
44121;DHT22;29783;52.504;13.478;2023-03-23T02:43:31;11.30;74.10
44121;DHT22;29783;52.504;13.478;2023-03-23T02:45:59;11.40;74.00
44121;DHT22;29783;52.504;13.478;2023-03-23T02:48:29;11.40;73.80
44121;DHT22;29783;52.504;13.478;2023-03-23T02:50:56;11.50;73.40
44121;DHT22;29783;52.504;13.478;2023-03-23T02:53:24;11.60;73.40
44121;DHT22;29783;52.504;13.478;2023-03-23T02:55:53;11.70;73.50
44121;DHT22;29783;52.504;13.478;2023-03-23T02:58:21;11.70;73.30
44121;DHT22;29783;52.504;13.478;2023-03-23T03:00:56;11.70;73.40
44121;DHT22;29783;52.504;13.478;2023-03-23T03:03:28;11.70;73.50
44121;DHT22;29783;52.504;13.478;2023-03-23T03:06:10;11.70;73.30
44121;DHT22;29783;52.504;13.478;2023-03-23T03:08:50;11.70;73.40
44121;DHT22;29783;52.504;13.478;2023-03-23T03:11:19;11.70;73.80
44121;DHT22;29783;52.504;13.478;2023-03-23T03:14:05;11.70;73.80
44121;DHT22;29783;52.504;13.478;2023-03-23T03:16:56;11.70;74.00
44121;DHT22;29783;52.504;13.478;2023-03-23T03:19:39;11.80;73.80
44121;DHT22;29783;52.504;13.478;2023-03-23T03:22:43;11.70;73.80
44121;DHT22;29783;52.504;13.478;2023-03-23T03:25:14;11.70;74.10
44121;DHT22;29783;52.504;13.478;2023-03-23T03:27:44;11.70;74.00
44121;DHT22;29783;52.504;13.478;2023-03-23T03:30:14;11.80;73.70
44121;DHT22;29783;52.504;13.478;2023-03-23T03:32:52;11.70;74.10
44121;DHT22;29783;52.504;13.478;2023-03-23T03:35:23;11.70;74.00
44121;DHT22;29783;52.504;13.478;2023-03-23T03:37:50;11.70;74.20
44121;DHT22;29783;52.504;13.478;2023-03-23T03:40:51;11.70;74.20
44121;DHT22;29783;52.504;13.478;2023-03-23T03:43:17;11.70;74.80
44121;DHT22;29783;52.504;13.478;2023-03-23T03:45:43;11.70;74.40
44121;DHT22;29783;52.504;13.478;2023-03-23T03:48:12;11.60;74.50
44121;DHT22;29783;52.504;13.478;2023-03-23T03:50:47;11.70;74.20
44121;DHT22;29783;52.504;13.478;2023-03-23T03:53:13;11.70;74.40
44121;DHT22;29783;52.504;13.478;2023-03-23T03:55:39;11.70;74.80
44121;DHT22;29783;52.504;13.478;2023-03-23T03:58:10;11.70;74.80
44121;DHT22;29783;52.504;13.478;2023-03-23T04:00:47;11.70;74.70
44121;DHT22;29783;52.504;13.478;2023-03-23T04:06:58;11.60;75.10
44121;DHT22;29783;52.504;13.478;2023-03-23T04:09:27;11.50;75.90
44121;DHT22;29783;52.504;13.478;2023-03-23T04:15:24;11.50;75.70
44121;DHT22;29783;52.504;13.478;2023-03-23T04:17:56;11.40;75.90
44121;DHT22;29783;52.504;13.478;2023-03-23T04:20:24;11.40;76.20
44121;DHT22;29783;52.504;13.478;2023-03-23T04:22:50;11.40;76.40
44121;DHT22;29783;52.504;13.478;2023-03-23T04:25:19;11.40;76.60
44121;DHT22;29783;52.504;13.478;2023-03-23T04:27:47;11.40;76.40
44121;DHT22;29783;52.504;13.478;2023-03-23T04:30:22;11.40;76.50
44121;DHT22;29783;52.504;13.478;2023-03-23T04:32:52;11.40;76.30
44121;DHT22;29783;52.504;13.478;2023-03-23T04:35:23;11.50;76.00
44121;DHT22;29783;52.504;13.478;2023-03-23T04:38:13;11.50;76.30
44121;DHT22;29783;52.504;13.478;2023-03-23T04:47:32;11.50;76.40
44121;DHT22;29783;52.504;13.478;2023-03-23T04:50:23;11.50;76.30
44121;DHT22;29783;52.504;13.478;2023-03-23T04:52:58;11.60;75.90
44121;DHT22;29783;52.504;13.478;2023-03-23T04:55:41;11.70;75.70
44121;DHT22;29783;52.504;13.478;2023-03-23T04:58:16;11.70;75.70
44121;DHT22;29783;52.504;13.478;2023-03-23T05:00:56;11.70;76.10
44121;DHT22;29783;52.504;13.478;2023-03-23T05:03:35;11.60;76.00
44121;DHT22;29783;52.504;13.478;2023-03-23T05:06:02;11.70;76.00
44121;DHT22;29783;52.504;13.478;2023-03-23T05:08:29;11.70;76.10
44121;DHT22;29783;52.504;13.478;2023-03-23T05:14:28;11.70;76.30
44121;DHT22;29783;52.504;13.478;2023-03-23T05:20:50;11.50;78.10
44121;DHT22;29783;52.504;13.478;2023-03-23T05:23:21;11.40;78.30
44121;DHT22;29783;52.504;13.478;2023-03-23T05:25:57;11.50;78.60
44121;DHT22;29783;52.504;13.478;2023-03-23T05:28:32;11.40;79.10
44121;DHT22;29783;52.504;13.478;2023-03-23T05:30:58;11.40;79.70
44121;DHT22;29783;52.504;13.478;2023-03-23T05:33:25;11.30;79.60
44121;DHT22;29783;52.504;13.478;2023-03-23T05:35:53;11.40;79.60
44121;DHT22;29783;52.504;13.478;2023-03-23T05:38:22;11.40;79.80
44121;DHT22;29783;52.504;13.478;2023-03-23T05:40:47;11.40;79.90
44121;DHT22;29783;52.504;13.478;2023-03-23T05:43:14;11.40;79.80
44121;DHT22;29783;52.504;13.478;2023-03-23T05:45:40;11.40;79.60
44121;DHT22;29783;52.504;13.478;2023-03-23T05:48:07;11.40;80.10
44121;DHT22;29783;52.504;13.478;2023-03-23T05:50:34;11.30;80.90
44121;DHT22;29783;52.504;13.478;2023-03-23T05:53:00;11.30;81.50
44121;DHT22;29783;52.504;13.478;2023-03-23T05:55:25;11.20;82.60
44121;DHT22;29783;52.504;13.478;2023-03-23T05:57:51;11.20;83.20
44121;DHT22;29783;52.504;13.478;2023-03-23T06:00:17;11.00;84.40
44121;DHT22;29783;52.504;13.478;2023-03-23T06:02:48;10.90;85.50
44121;DHT22;29783;52.504;13.478;2023-03-23T06:05:15;10.80;86.20
44121;DHT22;29783;52.504;13.478;2023-03-23T06:07:42;10.80;86.60
44121;DHT22;29783;52.504;13.478;2023-03-23T06:10:08;10.70;87.50
44121;DHT22;29783;52.504;13.478;2023-03-23T06:12:35;10.70;88.30
44121;DHT22;29783;52.504;13.478;2023-03-23T06:15:01;10.60;88.80
44121;DHT22;29783;52.504;13.478;2023-03-23T06:17:28;10.60;89.10
44121;DHT22;29783;52.504;13.478;2023-03-23T06:19:53;10.50;89.90
44121;DHT22;29783;52.504;13.478;2023-03-23T06:22:19;10.50;90.40
44121;DHT22;29783;52.504;13.478;2023-03-23T06:24:45;10.50;90.40
44121;DHT22;29783;52.504;13.478;2023-03-23T06:27:11;10.50;90.80
44121;DHT22;29783;52.504;13.478;2023-03-23T06:29:37;10.60;91.00
44121;DHT22;29783;52.504;13.478;2023-03-23T06:32:04;10.50;91.60
44121;DHT22;29783;52.504;13.478;2023-03-23T06:34:31;10.60;91.90
44121;DHT22;29783;52.504;13.478;2023-03-23T06:36:58;10.60;91.60
44121;DHT22;29783;52.504;13.478;2023-03-23T06:39:23;10.50;91.90
44121;DHT22;29783;52.504;13.478;2023-03-23T06:52:10;10.60;92.00
44121;DHT22;29783;52.504;13.478;2023-03-23T06:54:36;10.70;92.00
44121;DHT22;29783;52.504;13.478;2023-03-23T06:57:02;10.70;91.90
44121;DHT22;29783;52.504;13.478;2023-03-23T06:59:27;10.70;92.10
44121;DHT22;29783;52.504;13.478;2023-03-23T07:01:53;10.70;92.20
44121;DHT22;29783;52.504;13.478;2023-03-23T07:04:19;10.70;91.90
44121;DHT22;29783;52.504;13.478;2023-03-23T07:06:44;10.70;92.30
44121;DHT22;29783;52.504;13.478;2023-03-23T07:09:11;10.70;92.30
44121;DHT22;29783;52.504;13.478;2023-03-23T07:11:36;10.70;92.40
44121;DHT22;29783;52.504;13.478;2023-03-23T07:14:02;10.80;92.60
44121;DHT22;29783;52.504;13.478;2023-03-23T07:16:29;10.80;92.50
44121;DHT22;29783;52.504;13.478;2023-03-23T07:18:56;10.80;92.10
44121;DHT22;29783;52.504;13.478;2023-03-23T07:21:22;10.80;92.50
44121;DHT22;29783;52.504;13.478;2023-03-23T07:23:48;10.80;92.00
44121;DHT22;29783;52.504;13.478;2023-03-23T07:26:14;10.80;92.00
44121;DHT22;29783;52.504;13.478;2023-03-23T07:28:43;11.00;91.70
44121;DHT22;29783;52.504;13.478;2023-03-23T07:34:33;10.80;91.40
44121;DHT22;29783;52.504;13.478;2023-03-23T07:36:59;11.00;92.10
44121;DHT22;29783;52.504;13.478;2023-03-23T07:49:56;11.00;91.20
44121;DHT22;29783;52.504;13.478;2023-03-23T07:52:22;11.10;91.70
44121;DHT22;29783;52.504;13.478;2023-03-23T07:54:49;11.20;91.90
44121;DHT22;29783;52.504;13.478;2023-03-23T07:57:15;11.30;91.70
44121;DHT22;29783;52.504;13.478;2023-03-23T08:00:19;11.30;90.70
44121;DHT22;29783;52.504;13.478;2023-03-23T08:02:51;11.30;90.70
44121;DHT22;29783;52.504;13.478;2023-03-23T08:05:18;11.20;90.10
44121;DHT22;29783;52.504;13.478;2023-03-23T08:07:44;11.20;90.60
44121;DHT22;29783;52.504;13.478;2023-03-23T08:10:12;11.20;90.70
44121;DHT22;29783;52.504;13.478;2023-03-23T08:12:42;11.30;90.80
44121;DHT22;29783;52.504;13.478;2023-03-23T08:15:10;11.20;91.00
44121;DHT22;29783;52.504;13.478;2023-03-23T08:17:38;11.30;90.80
44121;DHT22;29783;52.504;13.478;2023-03-23T08:20:04;11.40;91.10
44121;DHT22;29783;52.504;13.478;2023-03-23T08:22:37;11.60;89.70
44121;DHT22;29783;52.504;13.478;2023-03-23T08:25:04;11.60;89.50
44121;DHT22;29783;52.504;13.478;2023-03-23T08:27:32;11.70;89.00
44121;DHT22;29783;52.504;13.478;2023-03-23T08:29:57;11.70;88.90
44121;DHT22;29783;52.504;13.478;2023-03-23T08:32:24;11.70;88.40
44121;DHT22;29783;52.504;13.478;2023-03-23T08:34:51;11.80;88.60
44121;DHT22;29783;52.504;13.478;2023-03-23T08:37:17;11.80;88.20
44121;DHT22;29783;52.504;13.478;2023-03-23T08:39:43;11.80;88.10
44121;DHT22;29783;52.504;13.478;2023-03-23T08:42:10;11.80;87.90
44121;DHT22;29783;52.504;13.478;2023-03-23T08:51:21;12.00;86.90
44121;DHT22;29783;52.504;13.478;2023-03-23T08:53:47;11.90;87.00
44121;DHT22;29783;52.504;13.478;2023-03-23T08:56:13;12.10;87.10
44121;DHT22;29783;52.504;13.478;2023-03-23T08:58:40;12.30;87.30
44121;DHT22;29783;52.504;13.478;2023-03-23T09:01:07;12.50;86.50
44121;DHT22;29783;52.504;13.478;2023-03-23T09:03:33;12.70;85.40
44121;DHT22;29783;52.504;13.478;2023-03-23T09:06:02;12.70;85.00
44121;DHT22;29783;52.504;13.478;2023-03-23T09:08:29;12.90;84.30
44121;DHT22;29783;52.504;13.478;2023-03-23T09:10:59;13.10;83.90
44121;DHT22;29783;52.504;13.478;2023-03-23T09:13:24;13.20;83.00
44121;DHT22;29783;52.504;13.478;2023-03-23T09:15:50;13.10;83.60
44121;DHT22;29783;52.504;13.478;2023-03-23T09:18:17;13.20;82.80
44121;DHT22;29783;52.504;13.478;2023-03-23T09:20:44;13.00;83.50
44121;DHT22;29783;52.504;13.478;2023-03-23T09:23:10;13.00;83.60
44121;DHT22;29783;52.504;13.478;2023-03-23T09:25:35;12.90;83.60
44121;DHT22;29783;52.504;13.478;2023-03-23T09:54:16;13.80;79.10
44121;DHT22;29783;52.504;13.478;2023-03-23T09:56:44;13.90;79.10
44121;DHT22;29783;52.504;13.478;2023-03-23T09:59:23;14.00;77.70
44121;DHT22;29783;52.504;13.478;2023-03-23T10:01:52;14.20;77.10
44121;DHT22;29783;52.504;13.478;2023-03-23T10:04:40;14.30;77.10
44121;DHT22;29783;52.504;13.478;2023-03-23T10:07:16;14.50;77.10
44121;DHT22;29783;52.504;13.478;2023-03-23T10:09:45;14.70;75.80
44121;DHT22;29783;52.504;13.478;2023-03-23T10:41:13;15.00;74.20
44121;DHT22;29783;52.504;13.478;2023-03-23T10:43:44;15.00;73.60
44121;DHT22;29783;52.504;13.478;2023-03-23T10:49:19;14.90;73.00
44121;DHT22;29783;52.504;13.478;2023-03-23T11:31:14;15.30;69.30
44121;DHT22;29783;52.504;13.478;2023-03-23T11:37:29;15.50;68.70
44121;DHT22;29783;52.504;13.478;2023-03-23T11:40:16;15.60;68.20
44121;DHT22;29783;52.504;13.478;2023-03-23T12:53:02;16.10;63.10
44121;DHT22;29783;52.504;13.478;2023-03-23T14:03:35;21.90;43.70
44121;DHT22;29783;52.504;13.478;2023-03-23T14:47:30;17.20;54.60
44121;DHT22;29783;52.504;13.478;2023-03-23T14:49:58;17.00;55.90
44121;DHT22;29783;52.504;13.478;2023-03-23T14:52:28;16.70;56.30
44121;DHT22;29783;52.504;13.478;2023-03-23T14:54:54;16.70;57.30
44121;DHT22;29783;52.504;13.478;2023-03-23T15:27:27;21.30;48.60
44121;DHT22;29783;52.504;13.478;2023-03-23T15:29:56;23.20;43.80
44121;DHT22;29783;52.504;13.478;2023-03-23T15:56:50;21.70;42.20
44121;DHT22;29783;52.504;13.478;2023-03-23T16:56:26;16.00;57.50
44121;DHT22;29783;52.504;13.478;2023-03-23T16:58:52;16.00;57.80
44121;DHT22;29783;52.504;13.478;2023-03-23T17:01:18;15.90;58.00
44121;DHT22;29783;52.504;13.478;2023-03-23T17:03:46;15.80;59.60
44121;DHT22;29783;52.504;13.478;2023-03-23T17:06:12;15.60;61.20
44121;DHT22;29783;52.504;13.478;2023-03-23T17:08:38;15.30;62.50
44121;DHT22;29783;52.504;13.478;2023-03-23T17:11:19;15.10;64.10
44121;DHT22;29783;52.504;13.478;2023-03-23T17:13:45;14.90;65.40
44121;DHT22;29783;52.504;13.478;2023-03-23T17:16:10;14.70;66.20
44121;DHT22;29783;52.504;13.478;2023-03-23T17:18:39;14.60;67.20
44121;DHT22;29783;52.504;13.478;2023-03-23T17:28:08;14.10;69.70
44121;DHT22;29783;52.504;13.478;2023-03-23T17:30:35;14.00;70.30
44121;DHT22;29783;52.504;13.478;2023-03-23T17:33:04;13.90;70.90
44121;DHT22;29783;52.504;13.478;2023-03-23T17:35:32;13.80;71.30
44121;DHT22;29783;52.504;13.478;2023-03-23T17:37:57;13.90;71.30
44121;DHT22;29783;52.504;13.478;2023-03-23T17:40:30;13.90;71.40
44121;DHT22;29783;52.504;13.478;2023-03-23T17:42:56;13.80;71.60
44121;DHT22;29783;52.504;13.478;2023-03-23T17:45:24;13.90;72.00
44121;DHT22;29783;52.504;13.478;2023-03-23T17:48:08;13.90;72.60
44121;DHT22;29783;52.504;13.478;2023-03-23T17:50:37;13.70;74.60
44121;DHT22;29783;52.504;13.478;2023-03-23T17:53:03;13.30;77.40
44121;DHT22;29783;52.504;13.478;2023-03-23T17:55:30;13.00;79.50
44121;DHT22;29783;52.504;13.478;2023-03-23T17:57:55;12.70;80.20
44121;DHT22;29783;52.504;13.478;2023-03-23T18:03:12;12.40;80.70
44121;DHT22;29783;52.504;13.478;2023-03-23T18:05:38;12.30;81.70
44121;DHT22;29783;52.504;13.478;2023-03-23T18:08:05;12.30;81.80
44121;DHT22;29783;52.504;13.478;2023-03-23T18:10:31;12.30;81.30
44121;DHT22;29783;52.504;13.478;2023-03-23T18:13:00;12.30;80.60
44121;DHT22;29783;52.504;13.478;2023-03-23T18:15:26;12.30;81.50
44121;DHT22;29783;52.504;13.478;2023-03-23T18:17:54;12.30;81.10
44121;DHT22;29783;52.504;13.478;2023-03-23T18:20:20;12.30;81.40
44121;DHT22;29783;52.504;13.478;2023-03-23T18:22:46;12.30;81.10
44121;DHT22;29783;52.504;13.478;2023-03-23T18:25:12;12.50;80.60
44121;DHT22;29783;52.504;13.478;2023-03-23T18:34:23;12.50;80.80
44121;DHT22;29783;52.504;13.478;2023-03-23T18:36:49;12.50;80.90
44121;DHT22;29783;52.504;13.478;2023-03-23T18:39:16;12.50;81.30
44121;DHT22;29783;52.504;13.478;2023-03-23T18:48:42;12.30;84.40
44121;DHT22;29783;52.504;13.478;2023-03-23T18:51:53;12.00;85.90
44121;DHT22;29783;52.504;13.478;2023-03-23T18:54:37;11.80;86.90
44121;DHT22;29783;52.504;13.478;2023-03-23T18:57:04;11.60;87.90
44121;DHT22;29783;52.504;13.478;2023-03-23T18:59:30;11.70;88.20
44121;DHT22;29783;52.504;13.478;2023-03-23T19:02:31;11.60;88.30
44121;DHT22;29783;52.504;13.478;2023-03-23T19:12:35;11.70;88.60
44121;DHT22;29783;52.504;13.478;2023-03-23T19:15:01;11.60;88.70
44121;DHT22;29783;52.504;13.478;2023-03-23T19:17:26;11.70;88.90
44121;DHT22;29783;52.504;13.478;2023-03-23T19:20:02;11.60;89.10
44121;DHT22;29783;52.504;13.478;2023-03-23T19:22:28;11.60;89.10
44121;DHT22;29783;52.504;13.478;2023-03-23T19:24:53;11.70;88.90
44121;DHT22;29783;52.504;13.478;2023-03-23T19:27:19;11.70;88.60
44121;DHT22;29783;52.504;13.478;2023-03-23T19:30:24;11.80;88.40
44121;DHT22;29783;52.504;13.478;2023-03-23T19:36:17;11.70;88.40
44121;DHT22;29783;52.504;13.478;2023-03-23T19:49:24;11.80;87.60
44121;DHT22;29783;52.504;13.478;2023-03-23T19:51:50;11.70;87.40
44121;DHT22;29783;52.504;13.478;2023-03-23T19:54:52;11.70;87.80
44121;DHT22;29783;52.504;13.478;2023-03-23T19:57:18;11.50;88.30
44121;DHT22;29783;52.504;13.478;2023-03-23T19:59:44;11.50;88.60
44121;DHT22;29783;52.504;13.478;2023-03-23T20:02:10;11.50;88.80
44121;DHT22;29783;52.504;13.478;2023-03-23T20:04:36;11.50;88.70
44121;DHT22;29783;52.504;13.478;2023-03-23T20:07:14;11.60;88.40
44121;DHT22;29783;52.504;13.478;2023-03-23T20:09:40;11.60;88.30
44121;DHT22;29783;52.504;13.478;2023-03-23T20:12:06;11.70;88.30
44121;DHT22;29783;52.504;13.478;2023-03-23T20:14:33;11.60;88.30
44121;DHT22;29783;52.504;13.478;2023-03-23T20:27:14;11.60;88.60
44121;DHT22;29783;52.504;13.478;2023-03-23T20:33:01;11.60;88.90
44121;DHT22;29783;52.504;13.478;2023-03-23T20:42:11;11.60;88.80
44121;DHT22;29783;52.504;13.478;2023-03-23T20:44:38;11.60;88.70
44121;DHT22;29783;52.504;13.478;2023-03-23T20:47:05;11.60;89.00
44121;DHT22;29783;52.504;13.478;2023-03-23T20:49:50;11.60;89.10
44121;DHT22;29783;52.504;13.478;2023-03-23T20:52:26;11.60;89.20
44121;DHT22;29783;52.504;13.478;2023-03-23T20:54:53;11.60;89.30
44121;DHT22;29783;52.504;13.478;2023-03-23T21:00:40;11.70;88.90
44121;DHT22;29783;52.504;13.478;2023-03-23T21:03:06;11.70;88.90
44121;DHT22;29783;52.504;13.478;2023-03-23T21:05:33;11.70;89.00
44121;DHT22;29783;52.504;13.478;2023-03-23T21:08:00;11.60;89.00
44121;DHT22;29783;52.504;13.478;2023-03-23T21:10:26;11.60;89.10
44121;DHT22;29783;52.504;13.478;2023-03-23T21:13:02;11.60;88.90
44121;DHT22;29783;52.504;13.478;2023-03-23T21:15:29;11.70;88.70
44121;DHT22;29783;52.504;13.478;2023-03-23T21:17:55;11.70;88.60
44121;DHT22;29783;52.504;13.478;2023-03-23T21:24:00;11.70;88.40
44121;DHT22;29783;52.504;13.478;2023-03-23T21:26:27;11.60;88.70
44121;DHT22;29783;52.504;13.478;2023-03-23T21:28:54;11.50;88.90
44121;DHT22;29783;52.504;13.478;2023-03-23T21:31:24;11.60;89.00
44121;DHT22;29783;52.504;13.478;2023-03-23T21:33:56;11.50;89.10
44121;DHT22;29783;52.504;13.478;2023-03-23T21:36:22;11.60;89.50
44121;DHT22;29783;52.504;13.478;2023-03-23T21:38:49;11.50;89.60
44121;DHT22;29783;52.504;13.478;2023-03-23T21:41:15;11.50;89.70
44121;DHT22;29783;52.504;13.478;2023-03-23T21:43:41;11.40;90.00
44121;DHT22;29783;52.504;13.478;2023-03-23T21:46:11;11.30;89.90
44121;DHT22;29783;52.504;13.478;2023-03-23T21:48:38;11.20;90.10
44121;DHT22;29783;52.504;13.478;2023-03-23T21:54:29;10.90;90.60
44121;DHT22;29783;52.504;13.478;2023-03-23T21:56:59;10.70;91.10
44121;DHT22;29783;52.504;13.478;2023-03-23T21:59:26;10.70;91.40
44121;DHT22;29783;52.504;13.478;2023-03-23T22:01:52;10.50;91.60
44121;DHT22;29783;52.504;13.478;2023-03-23T22:04:19;10.40;91.90
44121;DHT22;29783;52.504;13.478;2023-03-23T22:06:45;10.30;92.30
44121;DHT22;29783;52.504;13.478;2023-03-23T22:09:12;10.30;92.70
44121;DHT22;29783;52.504;13.478;2023-03-23T22:11:38;10.30;92.60
44121;DHT22;29783;52.504;13.478;2023-03-23T22:14:05;10.30;92.60
44121;DHT22;29783;52.504;13.478;2023-03-23T22:16:31;10.20;92.60
44121;DHT22;29783;52.504;13.478;2023-03-23T22:18:58;10.10;92.90
44121;DHT22;29783;52.504;13.478;2023-03-23T22:21:25;10.10;93.30
44121;DHT22;29783;52.504;13.478;2023-03-23T22:23:56;10.00;93.20
44121;DHT22;29783;52.504;13.478;2023-03-23T22:26:23;9.90;93.30
44121;DHT22;29783;52.504;13.478;2023-03-23T22:28:49;9.80;93.50
44121;DHT22;29783;52.504;13.478;2023-03-23T22:31:22;9.80;93.70
44121;DHT22;29783;52.504;13.478;2023-03-23T22:33:49;9.80;93.70
44121;DHT22;29783;52.504;13.478;2023-03-23T22:36:19;9.70;93.80
44121;DHT22;29783;52.504;13.478;2023-03-23T22:38:46;9.70;93.90
44121;DHT22;29783;52.504;13.478;2023-03-23T22:41:18;9.60;94.00
44121;DHT22;29783;52.504;13.478;2023-03-23T22:43:45;9.60;94.30
44121;DHT22;29783;52.504;13.478;2023-03-23T22:46:11;9.60;94.40
44121;DHT22;29783;52.504;13.478;2023-03-23T22:48:37;9.50;94.40
44121;DHT22;29783;52.504;13.478;2023-03-23T22:51:03;9.40;94.50
44121;DHT22;29783;52.504;13.478;2023-03-23T22:53:29;9.40;94.60
44121;DHT22;29783;52.504;13.478;2023-03-23T22:55:56;9.30;94.60
44121;DHT22;29783;52.504;13.478;2023-03-23T22:58:23;9.30;94.70
44121;DHT22;29783;52.504;13.478;2023-03-23T23:00:59;9.30;94.80
44121;DHT22;29783;52.504;13.478;2023-03-23T23:03:26;9.30;94.90
44121;DHT22;29783;52.504;13.478;2023-03-23T23:05:53;9.20;95.00
44121;DHT22;29783;52.504;13.478;2023-03-23T23:08:20;9.20;95.10
44121;DHT22;29783;52.504;13.478;2023-03-23T23:10:49;9.20;95.20
44121;DHT22;29783;52.504;13.478;2023-03-23T23:13:16;9.20;95.20
44121;DHT22;29783;52.504;13.478;2023-03-23T23:15:47;9.20;95.30
44121;DHT22;29783;52.504;13.478;2023-03-23T23:18:14;9.20;95.30
44121;DHT22;29783;52.504;13.478;2023-03-23T23:27:40;9.30;95.60
44121;DHT22;29783;52.504;13.478;2023-03-23T23:30:06;9.30;95.70
44121;DHT22;29783;52.504;13.478;2023-03-23T23:32:33;9.30;95.80
44121;DHT22;29783;52.504;13.478;2023-03-23T23:34:59;9.30;95.60
44121;DHT22;29783;52.504;13.478;2023-03-23T23:37:25;9.30;95.60
44121;DHT22;29783;52.504;13.478;2023-03-23T23:39:51;9.30;95.40
44121;DHT22;29783;52.504;13.478;2023-03-23T23:42:17;9.30;95.20
44121;DHT22;29783;52.504;13.478;2023-03-23T23:44:42;9.40;95.30
44121;DHT22;29783;52.504;13.478;2023-03-23T23:47:10;9.30;95.00
44121;DHT22;29783;52.504;13.478;2023-03-23T23:49:36;9.40;94.90
44121;DHT22;29783;52.504;13.478;2023-03-23T23:52:03;9.40;94.70
44121;DHT22;29783;52.504;13.478;2023-03-23T23:54:29;9.40;94.60
44121;DHT22;29783;52.504;13.478;2023-03-23T23:56:59;9.50;94.40
